sensor_id;sensor_type;location;lat;lon;timestamp;pressure;altitude;pressure_sealevel;temperature;humidity
6395;BME280;3230;42.588;23.358;2022-08-25T00:00:09;91054.13;;;18.66;100.00
6395;BME280;3230;42.588;23.358;2022-08-25T00:02:35;91051.91;;;18.68;100.00
6395;BME280;3230;42.588;23.358;2022-08-25T00:05:03;91053.00;;;18.67;100.00
6395;BME280;3230;42.588;23.358;2022-08-25T00:07:28;91052.03;;;18.72;100.00
6395;BME280;3230;42.588;23.358;2022-08-25T00:09:54;91051.28;;;18.71;100.00
6395;BME280;3230;42.588;23.358;2022-08-25T00:12:19;91048.28;;;18.73;100.00
6395;BME280;3230;42.588;23.358;2022-08-25T00:14:45;91045.69;;;18.64;100.00
6395;BME280;3230;42.588;23.358;2022-08-25T00:17:10;91039.34;;;18.56;100.00
6395;BME280;3230;42.588;23.358;2022-08-25T00:19:37;91037.28;;;18.62;100.00
6395;BME280;3230;42.588;23.358;2022-08-25T00:22:04;91032.44;;;18.64;100.00
6395;BME280;3230;42.588;23.358;2022-08-25T00:24:29;91030.41;;;18.61;100.00
6395;BME280;3230;42.588;23.358;2022-08-25T00:26:56;91038.84;;;18.63;100.00
6395;BME280;3230;42.588;23.358;2022-08-25T00:29:23;91040.25;;;18.60;100.00
6395;BME280;3230;42.588;23.358;2022-08-25T00:31:53;91029.38;;;18.53;100.00
6395;BME280;3230;42.588;23.358;2022-08-25T00:34:24;91028.63;;;18.52;100.00
6395;BME280;3230;42.588;23.358;2022-08-25T00:36:51;91035.19;;;18.46;100.00
6395;BME280;3230;42.588;23.358;2022-08-25T00:39:18;91042.44;;;18.58;100.00
6395;BME280;3230;42.588;23.358;2022-08-25T00:41:46;91041.03;;;18.61;100.00
6395;BME280;3230;42.588;23.358;2022-08-25T00:44:14;91047.25;;;18.65;100.00
6395;BME280;3230;42.588;23.358;2022-08-25T00:46:49;91046.28;;;18.69;100.00
6395;BME280;3230;42.588;23.358;2022-08-25T00:49:16;91054.69;;;18.72;100.00
6395;BME280;3230;42.588;23.358;2022-08-25T00:51:51;91053.78;;;18.67;100.00
6395;BME280;3230;42.588;23.358;2022-08-25T00:54:32;91056.31;;;18.64;100.00
6395;BME280;3230;42.588;23.358;2022-08-25T00:56:59;91048.16;;;18.69;100.00
6395;BME280;3230;42.588;23.358;2022-08-25T00:59:26;91043.31;;;18.71;100.00
6395;BME280;3230;42.588;23.358;2022-08-25T01:01:52;91042.38;;;18.67;100.00
6395;BME280;3230;42.588;23.358;2022-08-25T01:04:19;91039.63;;;18.63;100.00
6395;BME280;3230;42.588;23.358;2022-08-25T01:06:47;91036.09;;;18.50;100.00
6395;BME280;3230;42.588;23.358;2022-08-25T01:09:13;91032.69;;;18.50;100.00
6395;BME280;3230;42.588;23.358;2022-08-25T01:11:41;91031.13;;;18.49;100.00
6395;BME280;3230;42.588;23.358;2022-08-25T01:14:08;91030.13;;;18.53;100.00
6395;BME280;3230;42.588;23.358;2022-08-25T01:16:37;91021.09;;;18.54;100.00
6395;BME280;3230;42.588;23.358;2022-08-25T01:19:05;91031.53;;;18.60;100.00
6395;BME280;3230;42.588;23.358;2022-08-25T01:21:38;91013.91;;;18.55;100.00
6395;BME280;3230;42.588;23.358;2022-08-25T01:24:04;91015.16;;;18.58;100.00
6395;BME280;3230;42.588;23.358;2022-08-25T01:26:33;91009.72;;;18.54;100.00
6395;BME280;3230;42.588;23.358;2022-08-25T01:29:02;91010.47;;;18.54;100.00
6395;BME280;3230;42.588;23.358;2022-08-25T01:32:08;91016.03;;;18.62;100.00
6395;BME280;3230;42.588;23.358;2022-08-25T01:34:37;91016.97;;;18.66;100.00
6395;BME280;3230;42.588;23.358;2022-08-25T01:37:03;91014.63;;;18.64;100.00
6395;BME280;3230;42.588;23.358;2022-08-25T01:39:30;91022.22;;;18.75;100.00
6395;BME280;3230;42.588;23.358;2022-08-25T01:44:40;91021.75;;;18.73;100.00
6395;BME280;3230;42.588;23.358;2022-08-25T01:47:06;91027.31;;;18.80;100.00
6395;BME280;3230;42.588;23.358;2022-08-25T01:49:32;91031.00;;;18.88;100.00
6395;BME280;3230;42.588;23.358;2022-08-25T01:54:50;91026.16;;;18.90;100.00
6395;BME280;3230;42.588;23.358;2022-08-25T01:57:15;91022.56;;;18.94;100.00
6395;BME280;3230;42.588;23.358;2022-08-25T01:59:41;91022.03;;;19.01;100.00
6395;BME280;3230;42.588;23.358;2022-08-25T02:02:07;91016.91;;;18.96;100.00
6395;BME280;3230;42.588;23.358;2022-08-25T02:04:33;91012.31;;;19.05;100.00
6395;BME280;3230;42.588;23.358;2022-08-25T02:07:00;91011.66;;;19.08;100.00
6395;BME280;3230;42.588;23.358;2022-08-25T02:09:26;91014.00;;;19.10;100.00
6395;BME280;3230;42.588;23.358;2022-08-25T02:11:51;91008.03;;;19.13;100.00
6395;BME280;3230;42.588;23.358;2022-08-25T02:14:16;91011.59;;;19.17;100.00
6395;BME280;3230;42.588;23.358;2022-08-25T02:16:46;91013.81;;;19.15;100.00
6395;BME280;3230;42.588;23.358;2022-08-25T02:19:13;91004.66;;;19.25;100.00
6395;BME280;3230;42.588;23.358;2022-08-25T02:21:40;90999.34;;;19.25;100.00
6395;BME280;3230;42.588;23.358;2022-08-25T02:24:06;91002.44;;;19.27;100.00
6395;BME280;3230;42.588;23.358;2022-08-25T02:26:32;91001.53;;;19.23;100.00
6395;BME280;3230;42.588;23.358;2022-08-25T02:28:58;91001.09;;;19.21;100.00
6395;BME280;3230;42.588;23.358;2022-08-25T02:31:24;91003.88;;;19.24;100.00
6395;BME280;3230;42.588;23.358;2022-08-25T02:33:51;91003.66;;;19.29;100.00
6395;BME280;3230;42.588;23.358;2022-08-25T02:36:17;91006.75;;;19.31;100.00
6395;BME280;3230;42.588;23.358;2022-08-25T02:38:44;91007.09;;;19.30;100.00
6395;BME280;3230;42.588;23.358;2022-08-25T02:41:13;91004.28;;;19.47;100.00
6395;BME280;3230;42.588;23.358;2022-08-25T02:43:40;91005.81;;;19.48;100.00
6395;BME280;3230;42.588;23.358;2022-08-25T02:46:07;91010.25;;;19.44;100.00
6395;BME280;3230;42.588;23.358;2022-08-25T02:48:33;91003.69;;;19.42;100.00
6395;BME280;3230;42.588;23.358;2022-08-25T02:50:59;91002.28;;;19.44;100.00
6395;BME280;3230;42.588;23.358;2022-08-25T02:53:26;91003.59;;;19.38;100.00
6395;BME280;3230;42.588;23.358;2022-08-25T02:55:52;91006.16;;;19.47;100.00
6395;BME280;3230;42.588;23.358;2022-08-25T02:58:17;91011.13;;;19.48;100.00
6395;BME280;3230;42.588;23.358;2022-08-25T03:00:44;91012.91;;;19.44;100.00
6395;BME280;3230;42.588;23.358;2022-08-25T03:03:10;91012.69;;;19.49;100.00
6395;BME280;3230;42.588;23.358;2022-08-25T03:05:36;91012.38;;;19.51;100.00
6395;BME280;3230;42.588;23.358;2022-08-25T03:08:03;91019.56;;;19.50;100.00
6395;BME280;3230;42.588;23.358;2022-08-25T03:10:29;91016.00;;;19.46;100.00
6395;BME280;3230;42.588;23.358;2022-08-25T03:12:54;91009.34;;;19.40;100.00
6395;BME280;3230;42.588;23.358;2022-08-25T03:15:20;91007.13;;;19.42;100.00
6395;BME280;3230;42.588;23.358;2022-08-25T03:17:46;91008.25;;;19.41;100.00
6395;BME280;3230;42.588;23.358;2022-08-25T03:20:13;91014.09;;;19.34;100.00
6395;BME280;3230;42.588;23.358;2022-08-25T03:22:40;91014.53;;;19.37;100.00
6395;BME280;3230;42.588;23.358;2022-08-25T03:25:06;91022.38;;;19.33;100.00
6395;BME280;3230;42.588;23.358;2022-08-25T03:27:50;91013.06;;;19.27;100.00
6395;BME280;3230;42.588;23.358;2022-08-25T03:30:16;91014.38;;;19.21;100.00
6395;BME280;3230;42.588;23.358;2022-08-25T03:32:42;91016.78;;;19.13;100.00
6395;BME280;3230;42.588;23.358;2022-08-25T03:35:08;91013.00;;;19.14;100.00
6395;BME280;3230;42.588;23.358;2022-08-25T03:37:35;91014.78;;;19.10;100.00
6395;BME280;3230;42.588;23.358;2022-08-25T03:40:03;91018.28;;;19.02;100.00
6395;BME280;3230;42.588;23.358;2022-08-25T03:42:28;91007.66;;;19.02;100.00
6395;BME280;3230;42.588;23.358;2022-08-25T03:44:54;91013.09;;;19.06;100.00
6395;BME280;3230;42.588;23.358;2022-08-25T03:47:19;91012.19;;;19.01;100.00
6395;BME280;3230;42.588;23.358;2022-08-25T03:49:45;91000.78;;;19.01;100.00
6395;BME280;3230;42.588;23.358;2022-08-25T03:52:10;91006.22;;;19.05;100.00
6395;BME280;3230;42.588;23.358;2022-08-25T03:54:36;91001.94;;;19.12;100.00
6395;BME280;3230;42.588;23.358;2022-08-25T03:57:01;91007.59;;;19.11;100.00
6395;BME280;3230;42.588;23.358;2022-08-25T03:59:26;91000.16;;;19.04;100.00
6395;BME280;3230;42.588;23.358;2022-08-25T04:01:52;91011.66;;;19.08;100.00
6395;BME280;3230;42.588;23.358;2022-08-25T04:04:18;91002.16;;;19.07;100.00
6395;BME280;3230;42.588;23.358;2022-08-25T04:06:44;91005.03;;;19.14;100.00
6395;BME280;3230;42.588;23.358;2022-08-25T04:09:11;91005.84;;;19.15;100.00
6395;BME280;3230;42.588;23.358;2022-08-25T04:11:37;91001.94;;;19.12;100.00
6395;BME280;3230;42.588;23.358;2022-08-25T04:14:03;91008.41;;;19.24;100.00
6395;BME280;3230;42.588;23.358;2022-08-25T04:16:31;90993.81;;;19.30;100.00
6395;BME280;3230;42.588;23.358;2022-08-25T04:18:58;91001.44;;;19.31;100.00
6395;BME280;3230;42.588;23.358;2022-08-25T04:21:25;90990.38;;;19.29;100.00
6395;BME280;3230;42.588;23.358;2022-08-25T04:23:52;90991.97;;;19.43;100.00
6395;BME280;3230;42.588;23.358;2022-08-25T04:26:23;90989.88;;;19.48;100.00
6395;BME280;3230;42.588;23.358;2022-08-25T04:28:50;90998.19;;;19.59;100.00
6395;BME280;3230;42.588;23.358;2022-08-25T04:31:17;90995.63;;;19.50;100.00
6395;BME280;3230;42.588;23.358;2022-08-25T04:33:43;91002.06;;;19.62;100.00
6395;BME280;3230;42.588;23.358;2022-08-25T04:36:09;91000.94;;;19.50;100.00
6395;BME280;3230;42.588;23.358;2022-08-25T04:38:40;90999.00;;;19.60;100.00
6395;BME280;3230;42.588;23.358;2022-08-25T04:41:07;90990.34;;;19.75;100.00
6395;BME280;3230;42.588;23.358;2022-08-25T04:43:36;90990.28;;;19.72;100.00
6395;BME280;3230;42.588;23.358;2022-08-25T04:46:28;91001.72;;;19.97;100.00
6395;BME280;3230;42.588;23.358;2022-08-25T04:48:52;91011.25;;;20.10;100.00
6395;BME280;3230;42.588;23.358;2022-08-25T04:51:23;91006.59;;;20.07;100.00
6395;BME280;3230;42.588;23.358;2022-08-25T04:53:49;91005.84;;;20.19;100.00
6395;BME280;3230;42.588;23.358;2022-08-25T04:56:17;91008.03;;;20.29;100.00
6395;BME280;3230;42.588;23.358;2022-08-25T04:58:43;91014.91;;;20.31;100.00
6395;BME280;3230;42.588;23.358;2022-08-25T05:01:14;91008.69;;;20.26;100.00
6395;BME280;3230;42.588;23.358;2022-08-25T05:03:41;91020.13;;;20.27;100.00
6395;BME280;3230;42.588;23.358;2022-08-25T05:06:06;91017.25;;;20.20;100.00
6395;BME280;3230;42.588;23.358;2022-08-25T05:08:33;91019.56;;;20.34;100.00
6395;BME280;3230;42.588;23.358;2022-08-25T05:11:04;91016.47;;;20.32;100.00
6395;BME280;3230;42.588;23.358;2022-08-25T05:13:30;91010.81;;;20.33;100.00
6395;BME280;3230;42.588;23.358;2022-08-25T05:15:57;90989.63;;;20.49;100.00
6395;BME280;3230;42.588;23.358;2022-08-25T05:18:25;91008.41;;;20.93;100.00
6395;BME280;3230;42.588;23.358;2022-08-25T05:20:52;91009.78;;;21.16;100.00
6395;BME280;3230;42.588;23.358;2022-08-25T05:23:22;91011.22;;;21.41;100.00
6395;BME280;3230;42.588;23.358;2022-08-25T05:25:49;91005.78;;;21.66;100.00
6395;BME280;3230;42.588;23.358;2022-08-25T05:28:15;91008.16;;;21.84;100.00
6395;BME280;3230;42.588;23.358;2022-08-25T05:30:42;91004.44;;;22.04;100.00
6395;BME280;3230;42.588;23.358;2022-08-25T05:33:09;91006.78;;;22.38;98.41
6395;BME280;3230;42.588;23.358;2022-08-25T05:35:35;90998.88;;;22.61;97.47
6395;BME280;3230;42.588;23.358;2022-08-25T05:38:01;91003.69;;;22.72;95.75
6395;BME280;3230;42.588;23.358;2022-08-25T05:40:28;91012.81;;;23.06;93.50
6395;BME280;3230;42.588;23.358;2022-08-25T05:42:54;91019.91;;;22.98;94.35
6395;BME280;3230;42.588;23.358;2022-08-25T05:45:19;91022.16;;;23.16;93.58
6395;BME280;3230;42.588;23.358;2022-08-25T05:47:44;91023.81;;;23.21;92.62
6395;BME280;3230;42.588;23.358;2022-08-25T05:50:10;91026.66;;;23.12;92.09
6395;BME280;3230;42.588;23.358;2022-08-25T05:52:37;91027.97;;;23.18;92.92
6395;BME280;3230;42.588;23.358;2022-08-25T05:55:03;91026.47;;;23.60;91.38
6395;BME280;3230;42.588;23.358;2022-08-25T05:57:29;91019.06;;;23.92;89.48
6395;BME280;3230;42.588;23.358;2022-08-25T05:59:54;91026.91;;;23.85;89.10
6395;BME280;3230;42.588;23.358;2022-08-25T06:02:20;91020.25;;;24.18;88.84
6395;BME280;3230;42.588;23.358;2022-08-25T06:05:04;91023.84;;;24.53;86.37
6395;BME280;3230;42.588;23.358;2022-08-25T06:07:29;91026.78;;;24.71;84.74
6395;BME280;3230;42.588;23.358;2022-08-25T06:09:54;91028.03;;;24.77;84.74
6395;BME280;3230;42.588;23.358;2022-08-25T06:12:20;91035.25;;;25.00;83.65
6395;BME280;3230;42.588;23.358;2022-08-25T06:14:46;91029.31;;;25.14;83.19
6395;BME280;3230;42.588;23.358;2022-08-25T06:17:13;91043.94;;;25.20;82.73
6395;BME280;3230;42.588;23.358;2022-08-25T06:19:39;91045.81;;;25.46;81.00
6395;BME280;3230;42.588;23.358;2022-08-25T06:22:04;91033.53;;;25.45;80.84
6395;BME280;3230;42.588;23.358;2022-08-25T06:24:30;91033.53;;;25.45;79.62
6395;BME280;3230;42.588;23.358;2022-08-25T06:26:56;91027.72;;;25.74;80.95
6395;BME280;3230;42.588;23.358;2022-08-25T06:29:22;91035.28;;;26.43;77.01
6395;BME280;3230;42.588;23.358;2022-08-25T06:31:48;91041.16;;;27.16;75.42
6395;BME280;3230;42.588;23.358;2022-08-25T06:34:15;91047.56;;;27.63;71.48
6395;BME280;3230;42.588;23.358;2022-08-25T06:36:41;91046.88;;;27.81;69.90
6395;BME280;3230;42.588;23.358;2022-08-25T06:39:07;91045.06;;;28.50;69.97
6395;BME280;3230;42.588;23.358;2022-08-25T06:41:32;91031.19;;;28.98;65.56
6395;BME280;3230;42.588;23.358;2022-08-25T06:43:58;91036.16;;;29.40;65.63
6395;BME280;3230;42.588;23.358;2022-08-25T06:46:25;91030.81;;;30.14;62.73
6395;BME280;3230;42.588;23.358;2022-08-25T06:48:52;91036.66;;;30.09;61.44
6395;BME280;3230;42.588;23.358;2022-08-25T06:51:19;91040.25;;;30.51;60.44
6395;BME280;3230;42.588;23.358;2022-08-25T06:53:46;91031.53;;;31.23;57.91
6395;BME280;3230;42.588;23.358;2022-08-25T06:56:13;91027.56;;;32.01;54.13
6395;BME280;3230;42.588;23.358;2022-08-25T06:58:39;91024.56;;;32.77;54.02
6395;BME280;3230;42.588;23.358;2022-08-25T07:01:25;91026.81;;;33.70;50.42
6395;BME280;3230;42.588;23.358;2022-08-25T07:03:57;91033.72;;;34.32;48.69
6395;BME280;3230;42.588;23.358;2022-08-25T07:06:25;91036.56;;;34.08;46.83
6395;BME280;3230;42.588;23.358;2022-08-25T07:08:51;91034.91;;;33.74;48.52
6395;BME280;3230;42.588;23.358;2022-08-25T07:11:17;91037.78;;;34.60;46.32
6395;BME280;3230;42.588;23.358;2022-08-25T07:13:46;91035.34;;;34.99;45.23
6395;BME280;3230;42.588;23.358;2022-08-25T07:16:12;91033.72;;;34.85;45.18
6395;BME280;3230;42.588;23.358;2022-08-25T07:18:42;91017.25;;;34.92;43.88
6395;BME280;3230;42.588;23.358;2022-08-25T07:21:08;91019.56;;;32.76;47.63
6395;BME280;3230;42.588;23.358;2022-08-25T07:23:34;91025.81;;;32.45;49.59
6395;BME280;3230;42.588;23.358;2022-08-25T07:26:18;91009.31;;;31.39;51.86
6395;BME280;3230;42.588;23.358;2022-08-25T07:28:44;91005.56;;;30.39;57.60
6395;BME280;3230;42.588;23.358;2022-08-25T07:31:10;91012.16;;;29.63;59.93
6395;BME280;3230;42.588;23.358;2022-08-25T07:33:35;91008.75;;;29.45;61.98
6395;BME280;3230;42.588;23.358;2022-08-25T07:36:01;91014.94;;;30.23;58.08
6395;BME280;3230;42.588;23.358;2022-08-25T07:38:26;91010.19;;;31.33;55.21
6395;BME280;3230;42.588;23.358;2022-08-25T07:41:00;91021.34;;;32.35;52.79
6395;BME280;3230;42.588;23.358;2022-08-25T07:43:26;91023.81;;;32.77;51.60
6395;BME280;3230;42.588;23.358;2022-08-25T07:45:51;91030.41;;;32.99;49.96
6395;BME280;3230;42.588;23.358;2022-08-25T07:48:17;91025.06;;;34.00;46.66
6395;BME280;3230;42.588;23.358;2022-08-25T07:50:45;91031.66;;;34.19;46.26
6395;BME280;3230;42.588;23.358;2022-08-25T07:53:12;91029.03;;;34.16;45.94
6395;BME280;3230;42.588;23.358;2022-08-25T07:55:38;91023.47;;;34.03;44.02
6395;BME280;3230;42.588;23.358;2022-08-25T07:58:07;91032.34;;;35.26;41.29
6395;BME280;3230;42.588;23.358;2022-08-25T08:00:33;91026.97;;;35.22;44.52
6395;BME280;3230;42.588;23.358;2022-08-25T08:03:02;91025.38;;;35.09;44.10
6395;BME280;3230;42.588;23.358;2022-08-25T08:05:28;91025.78;;;36.12;38.48
6395;BME280;3230;42.588;23.358;2022-08-25T08:07:54;91024.44;;;35.15;40.73
6395;BME280;3230;42.588;23.358;2022-08-25T08:10:21;91024.34;;;34.69;42.09
6395;BME280;3230;42.588;23.358;2022-08-25T08:12:47;91016.69;;;35.60;39.50
6395;BME280;3230;42.588;23.358;2022-08-25T08:15:12;91020.25;;;34.61;42.13
6395;BME280;3230;42.588;23.358;2022-08-25T08:17:39;91019.28;;;34.35;44.40
6395;BME280;3230;42.588;23.358;2022-08-25T08:20:06;91010.25;;;34.58;43.29
6395;BME280;3230;42.588;23.358;2022-08-25T08:22:37;91011.75;;;35.25;39.70
6395;BME280;3230;42.588;23.358;2022-08-25T08:25:03;91016.94;;;36.08;38.35
6395;BME280;3230;42.588;23.358;2022-08-25T08:27:29;91017.56;;;35.99;38.70
6395;BME280;3230;42.588;23.358;2022-08-25T08:29:55;91008.00;;;33.79;42.82
6395;BME280;3230;42.588;23.358;2022-08-25T08:32:21;90999.22;;;33.92;44.69
6395;BME280;3230;42.588;23.358;2022-08-25T08:34:46;91006.25;;;34.26;40.85
6395;BME280;3230;42.588;23.358;2022-08-25T08:37:13;91009.94;;;33.99;43.80
6395;BME280;3230;42.588;23.358;2022-08-25T08:39:39;90997.66;;;34.48;41.79
6395;BME280;3230;42.588;23.358;2022-08-25T08:53:08;91005.97;;;34.73;40.16
6395;BME280;3230;42.588;23.358;2022-08-25T08:55:44;91003.78;;;34.68;37.06
6395;BME280;3230;42.588;23.358;2022-08-25T08:58:17;91006.66;;;34.78;38.24
6395;BME280;3230;42.588;23.358;2022-08-25T09:00:48;91011.63;;;35.75;36.16
6395;BME280;3230;42.588;23.358;2022-08-25T09:05:50;91004.66;;;33.92;42.30
6395;BME280;3230;42.588;23.358;2022-08-25T09:08:17;91002.81;;;32.81;41.12
6395;BME280;3230;42.588;23.358;2022-08-25T09:16:27;90995.69;;;30.14;47.51
6395;BME280;3230;42.588;23.358;2022-08-25T09:30:20;90988.50;;;28.39;53.73
6395;BME280;3230;42.588;23.358;2022-08-25T09:32:51;90983.78;;;27.89;57.02
6395;BME280;3230;42.588;23.358;2022-08-25T09:35:25;90983.44;;;27.94;55.65
6395;BME280;3230;42.588;23.358;2022-08-25T09:38:00;90992.72;;;28.11;54.29
6395;BME280;3230;42.588;23.358;2022-08-25T09:40:31;90980.69;;;27.65;56.54
6395;BME280;3230;42.588;23.358;2022-08-25T09:43:03;90973.69;;;27.42;55.74
6395;BME280;3230;42.588;23.358;2022-08-25T09:45:56;90983.03;;;27.88;56.46
6395;BME280;3230;42.588;23.358;2022-08-25T09:48:26;90980.28;;;27.63;57.09
6395;BME280;3230;42.588;23.358;2022-08-25T09:50:59;90975.47;;;27.13;58.21
6395;BME280;3230;42.588;23.358;2022-08-25T09:53:28;90986.66;;;27.22;59.47
6395;BME280;3230;42.588;23.358;2022-08-25T09:56:04;90978.13;;;27.06;58.40
6395;BME280;3230;42.588;23.358;2022-08-25T09:58:31;90988.28;;;27.41;54.38
6395;BME280;3230;42.588;23.358;2022-08-25T10:03:25;90983.56;;;27.17;56.20
6395;BME280;3230;42.588;23.358;2022-08-25T10:08:37;90984.91;;;26.81;60.27
6395;BME280;3230;42.588;23.358;2022-08-25T10:11:09;90986.84;;;26.32;59.50
6395;BME280;3230;42.588;23.358;2022-08-25T10:13:46;90980.91;;;26.61;61.25
6395;BME280;3230;42.588;23.358;2022-08-25T10:16:22;90988.69;;;26.73;61.00
6395;BME280;3230;42.588;23.358;2022-08-25T10:19:11;90985.97;;;26.70;60.75
6395;BME280;3230;42.588;23.358;2022-08-25T10:21:39;90989.28;;;26.48;60.05
6395;BME280;3230;42.588;23.358;2022-08-25T10:24:06;90985.19;;;26.17;60.90
6395;BME280;3230;42.588;23.358;2022-08-25T10:26:40;90977.63;;;26.30;63.17
6395;BME280;3230;42.588;23.358;2022-08-25T10:29:54;90988.50;;;26.03;61.36
6395;BME280;3230;42.588;23.358;2022-08-25T10:46:14;90971.91;;;26.35;64.37
6395;BME280;3230;42.588;23.358;2022-08-25T10:48:49;90964.09;;;26.15;63.83
6395;BME280;3230;42.588;23.358;2022-08-25T10:56:36;90965.75;;;26.87;63.13
6395;BME280;3230;42.588;23.358;2022-08-25T11:04:38;90963.41;;;26.81;62.53
6395;BME280;3230;42.588;23.358;2022-08-25T11:07:22;90956.13;;;26.82;61.91
6395;BME280;3230;42.588;23.358;2022-08-25T11:09:51;90949.44;;;26.61;60.99
6395;BME280;3230;42.588;23.358;2022-08-25T11:12:35;90940.81;;;26.34;61.95
6395;BME280;3230;42.588;23.358;2022-08-25T11:15:09;90934.31;;;26.35;61.79
6395;BME280;3230;42.588;23.358;2022-08-25T11:18:12;90934.06;;;26.58;62.28
6395;BME280;3230;42.588;23.358;2022-08-25T11:23:22;90937.34;;;26.89;59.93
6395;BME280;3230;42.588;23.358;2022-08-25T11:26:00;90930.47;;;26.99;60.04
6395;BME280;3230;42.588;23.358;2022-08-25T11:30:57;90922.50;;;27.28;56.74
6395;BME280;3230;42.588;23.358;2022-08-25T11:33:24;90917.69;;;26.78;58.46
6395;BME280;3230;42.588;23.358;2022-08-25T11:41:39;90910.28;;;27.56;58.27
6395;BME280;3230;42.588;23.358;2022-08-25T11:50:22;90915.31;;;27.61;58.44
6395;BME280;3230;42.588;23.358;2022-08-25T11:52:54;90911.34;;;27.19;59.62
6395;BME280;3230;42.588;23.358;2022-08-25T11:56:07;90909.34;;;27.01;60.39
6395;BME280;3230;42.588;23.358;2022-08-25T12:00:45;90907.91;;;26.44;62.18
6395;BME280;3230;42.588;23.358;2022-08-25T12:11:53;90907.13;;;27.28;60.00
6395;BME280;3230;42.588;23.358;2022-08-25T12:27:35;90906.66;;;27.05;58.96
6395;BME280;3230;42.588;23.358;2022-08-25T12:30:18;90913.53;;;26.95;59.20
6395;BME280;3230;42.588;23.358;2022-08-25T12:33:20;90910.88;;;26.98;58.34
6395;BME280;3230;42.588;23.358;2022-08-25T12:36:09;90906.69;;;27.08;56.73
6395;BME280;3230;42.588;23.358;2022-08-25T12:38:47;90907.38;;;26.91;60.69
6395;BME280;3230;42.588;23.358;2022-08-25T12:41:17;90899.75;;;27.07;57.67
6395;BME280;3230;42.588;23.358;2022-08-25T12:43:46;90901.69;;;27.07;58.90
6395;BME280;3230;42.588;23.358;2022-08-25T12:51:55;90904.34;;;26.96;59.78
6395;BME280;3230;42.588;23.358;2022-08-25T12:56:56;90909.34;;;27.05;60.07
6395;BME280;3230;42.588;23.358;2022-08-25T12:59:32;90904.31;;;26.89;58.33
6395;BME280;3230;42.588;23.358;2022-08-25T13:05:24;90909.69;;;26.89;58.10
6395;BME280;3230;42.588;23.358;2022-08-25T13:16:08;90909.50;;;26.53;59.83
6395;BME280;3230;42.588;23.358;2022-08-25T13:18:39;90908.63;;;26.38;60.07
6395;BME280;3230;42.588;23.358;2022-08-25T13:21:27;90909.91;;;26.62;61.80
6395;BME280;3230;42.588;23.358;2022-08-25T13:23:56;90913.72;;;26.57;59.16
6395;BME280;3230;42.588;23.358;2022-08-25T13:26:33;90915.81;;;26.23;61.91
6395;BME280;3230;42.588;23.358;2022-08-25T13:29:12;90912.00;;;26.24;63.09
6395;BME280;3230;42.588;23.358;2022-08-25T13:31:54;90915.81;;;25.78;62.24
6395;BME280;3230;42.588;23.358;2022-08-25T13:34:25;90902.84;;;25.83;61.76
6395;BME280;3230;42.588;23.358;2022-08-25T13:36:51;90911.31;;;25.93;61.79
6395;BME280;3230;42.588;23.358;2022-08-25T13:39:36;90898.41;;;26.06;62.28
6395;BME280;3230;42.588;23.358;2022-08-25T13:42:04;90898.41;;;26.06;62.64
6395;BME280;3230;42.588;23.358;2022-08-25T13:44:35;90899.91;;;26.03;62.53
6395;BME280;3230;42.588;23.358;2022-08-25T13:47:14;90906.72;;;25.90;62.75
6395;BME280;3230;42.588;23.358;2022-08-25T13:49:43;90905.09;;;25.78;63.17
6395;BME280;3230;42.588;23.358;2022-08-25T13:52:24;90899.19;;;25.23;63.91
6395;BME280;3230;42.588;23.358;2022-08-25T13:54:50;90896.97;;;25.33;64.53
6395;BME280;3230;42.588;23.358;2022-08-25T13:57:21;90893.88;;;25.68;64.11
6395;BME280;3230;42.588;23.358;2022-08-25T13:59:53;90897.94;;;25.51;64.18
6395;BME280;3230;42.588;23.358;2022-08-25T14:05:04;90897.91;;;25.44;63.41
6395;BME280;3230;42.588;23.358;2022-08-25T14:07:29;90904.88;;;25.18;64.92
6395;BME280;3230;42.588;23.358;2022-08-25T14:15:06;90902.47;;;25.10;66.41
6395;BME280;3230;42.588;23.358;2022-08-25T14:17:33;90901.59;;;25.32;65.03
6395;BME280;3230;42.588;23.358;2022-08-25T14:19:59;90903.06;;;24.92;64.96
6395;BME280;3230;42.588;23.358;2022-08-25T14:22:25;90910.66;;;25.20;64.88
6395;BME280;3230;42.588;23.358;2022-08-25T14:24:52;90899.03;;;25.09;65.75
6395;BME280;3230;42.588;23.358;2022-08-25T14:27:18;90904.66;;;24.97;64.94
6395;BME280;3230;42.588;23.358;2022-08-25T14:29:44;90895.88;;;25.00;65.17
6395;BME280;3230;42.588;23.358;2022-08-25T14:32:10;90901.94;;;24.93;65.76
6395;BME280;3230;42.588;23.358;2022-08-25T14:34:37;90907.38;;;25.04;64.30
6395;BME280;3230;42.588;23.358;2022-08-25T14:37:17;90894.19;;;24.88;65.30
6395;BME280;3230;42.588;23.358;2022-08-25T14:39:43;90899.59;;;24.91;65.28
6395;BME280;3230;42.588;23.358;2022-08-25T14:42:09;90898.94;;;24.68;65.61
6395;BME280;3230;42.588;23.358;2022-08-25T14:44:35;90898.72;;;24.53;66.93
6395;BME280;3230;42.588;23.358;2022-08-25T14:47:01;90894.75;;;24.70;65.92
6395;BME280;3230;42.588;23.358;2022-08-25T14:49:29;90893.47;;;24.61;65.85
6395;BME280;3230;42.588;23.358;2022-08-25T14:52:17;90890.09;;;24.37;65.46
6395;BME280;3230;42.588;23.358;2022-08-25T14:54:43;90893.94;;;24.09;67.35
6395;BME280;3230;42.588;23.358;2022-08-25T14:57:09;90894.47;;;24.22;66.93
6395;BME280;3230;42.588;23.358;2022-08-25T14:59:34;90894.91;;;24.24;67.88
6395;BME280;3230;42.588;23.358;2022-08-25T15:02:00;90884.72;;;24.37;67.99
6395;BME280;3230;42.588;23.358;2022-08-25T15:04:27;90891.09;;;24.25;66.52
6395;BME280;3230;42.588;23.358;2022-08-25T15:06:56;90901.84;;;24.29;66.91
6395;BME280;3230;42.588;23.358;2022-08-25T15:09:22;90888.16;;;24.34;67.13
6395;BME280;3230;42.588;23.358;2022-08-25T15:11:51;90893.72;;;24.21;67.01
6395;BME280;3230;42.588;23.358;2022-08-25T15:14:18;90897.00;;;24.11;67.15
6395;BME280;3230;42.588;23.358;2022-08-25T15:16:55;90896.44;;;23.75;67.60
6395;BME280;3230;42.588;23.358;2022-08-25T15:19:24;90901.66;;;23.68;68.15
6395;BME280;3230;42.588;23.358;2022-08-25T15:21:51;90904.16;;;23.34;69.09
6395;BME280;3230;42.588;23.358;2022-08-25T15:24:19;90903.00;;;23.15;69.45
6395;BME280;3230;42.588;23.358;2022-08-25T15:29:15;90903.50;;;23.40;69.73
6395;BME280;3230;42.588;23.358;2022-08-25T15:31:41;90888.56;;;23.39;70.19
6395;BME280;3230;42.588;23.358;2022-08-25T15:34:07;90897.63;;;23.54;69.38